»·PEaware :: N946S KOLS-KPHX

N946S :: KOLS-KPHX

FLIGHT INFORMATION

Flight Status: Arrived
Operator: Privately registered:
United States
More flights under this callsign
Pilot: Ethan S. (29221)
Aircraft: SOCATA TBM-900
(TBM9)
More flights by this aircraft type
Origin: KOLS Nogales Intl
United States
Destination: KPHX Phoenix Sky Harbor Intl
United States
More flights between these airports :: More routes between these airports
Route:
File this flight plan on PilotEdge
Remarks:
Altitude:
(Current/Filed)
16,500ft
Speed:
(Current/Filed)
280kts
Departed: 09-Oct-20 11:29 AM
Arrived: 09-Oct-20 12:05 PM
Distance/Time
Traveled:
134nm/0:35
Distance/Time
To Go:
Arrived

Flight Plot

Page will automatically refresh every two minutes.

Flight plan parsing failed; only flown route is shown


Map Options




Map Legend


Flown Route
Filed Route
Departure Airport
Arrival Airport
Navaid (VOR, NDB)
Fix

Horizontal Profiles

Position Reports

Time Latitude Longitude Heading Altitude Ground
Speed
09-Oct-20 11:22 31.418011 -110.850220 45 3886ft 0kts
09-Oct-20 11:23 31.418011 -110.850220 45 3886ft 0kts
09-Oct-20 11:24 31.418011 -110.850219 45 3886ft 0kts
09-Oct-20 11:25 31.418465 -110.848741 45 3893ft 10kts
09-Oct-20 11:26 31.421979 -110.844450 46 3917ft 22kts
09-Oct-20 11:27 31.425061 -110.840678 50 3940ft 13kts
09-Oct-20 11:28 31.413445 -110.854711 249 4362ft 134kts
09-Oct-20 11:29 31.444933 -110.873687 354 7106ft 154kts
09-Oct-20 11:30 31.490338 -110.874144 354 10053ft 162kts
09-Oct-20 11:31 31.537882 -110.874558 354 12779ft 169kts
09-Oct-20 11:32 31.583557 -110.890177 327 15579ft 171kts
09-Oct-20 11:33 31.635539 -110.920705 327 16537ft 250kts
09-Oct-20 11:34 31.705413 -110.962068 328 16497ft 281kts
09-Oct-20 11:35 31.779697 -111.006190 329 16455ft 288kts
09-Oct-20 11:36 31.860101 -111.026081 359 16420ft 297kts
09-Oct-20 11:37 31.944772 -111.022078 359 16417ft 297kts
09-Oct-20 11:38 32.029477 -111.018038 359 16417ft 297kts
09-Oct-20 11:39 32.113070 -111.013969 359 16556ft 294kts
09-Oct-20 11:40 32.193510 -111.025724 321 16565ft 284kts
09-Oct-20 11:41 32.261722 -111.079865 322 16528ft 287kts
09-Oct-20 11:42 32.330588 -111.133783 322 16499ft 288kts
09-Oct-20 11:43 32.399274 -111.187635 322 16499ft 287kts
09-Oct-20 11:44 32.468465 -111.241989 322 16499ft 288kts
09-Oct-20 11:45 32.538860 -111.297414 323 15467ft 300kts
09-Oct-20 11:46 32.609580 -111.353185 323 13929ft 299kts
09-Oct-20 11:47 32.680167 -111.408955 323 12391ft 298kts
09-Oct-20 11:48 32.750716 -111.464803 324 10849ft 297kts
09-Oct-20 11:49 32.820878 -111.520442 324 9309ft 289kts
09-Oct-20 11:50 32.885848 -111.572055 325 8541ft 253kts
09-Oct-20 11:51 32.938127 -111.613649 324 8559ft 214kts
09-Oct-20 11:52 32.955771 -111.677331 249 8559ft 232kts
09-Oct-20 11:53 32.947467 -111.756804 303 8527ft 261kts
09-Oct-20 11:54 32.989398 -111.832600 299 8546ft 264kts
09-Oct-20 11:55 33.029008 -111.910101 299 8543ft 265kts
09-Oct-20 11:56 33.086372 -111.974098 320 7499ft 281kts
09-Oct-20 11:57 33.145937 -112.034761 314 5779ft 239kts
09-Oct-20 11:58 33.195330 -112.068665 355 4524ft 183kts
09-Oct-20 11:59 33.248688 -112.069643 0 4528ft 196kts
09-Oct-20 12:00 33.304716 -112.069733 0 4240ft 201kts
09-Oct-20 12:01 33.362088 -112.069610 0 2732ft 192kts
09-Oct-20 12:02 33.411655 -112.069336 1 2221ft 153kts
09-Oct-20 12:03 33.428850 -112.041986 87 1415ft 106kts
09-Oct-20 12:04 33.428819 -112.016975 103 1115ft 20kts
09-Oct-20 12:05 33.427752 -112.017371 268 1113ft 10kts
09-Oct-20 12:07 33.427151 -112.021137 180 1112ft 13kts
09-Oct-20 12:08 33.425628 -112.020783 179 1112ft 0kts
09-Oct-20 12:09 33.425628 -112.020783 179 1112ft 0kts
09-Oct-20 12:10 33.425628 -112.020783 179 1112ft 0kts
09-Oct-20 12:11 33.425628 -112.020783 179 1112ft 0kts
09-Oct-20 12:12 33.425628 -112.020783 179 1112ft 0kts
09-Oct-20 12:13 33.425628 -112.020783 179 1112ft 0kts
09-Oct-20 12:14 33.425628 -112.020783 179 1112ft 0kts
09-Oct-20 12:15 33.425628 -112.020783 179 1112ft 0kts
09-Oct-20 12:16 33.425628 -112.020783 179 1112ft 0kts
09-Oct-20 12:17 33.425628 -112.020783 179 1112ft 0kts
09-Oct-20 12:18 33.425628 -112.020783 179 1112ft 0kts
09-Oct-20 12:19 33.425628 -112.020783 179 1112ft 0kts

Navigation Log

Ident Type
Flight plan parsing failed, navigation log unavailable